createdAt,value
2022-11-25T00:00:30.912Z,8.60
2022-11-25T00:02:58.607Z,8.50
2022-11-25T00:05:26.404Z,8.40
2022-11-25T00:07:56.163Z,8.40
2022-11-25T00:10:28.644Z,8.50
2022-11-25T00:12:56.103Z,8.70
2022-11-25T00:15:24.181Z,8.80
2022-11-25T00:20:47.573Z,8.70
2022-11-25T00:23:17.186Z,8.80
2022-11-25T00:25:44.724Z,8.70
2022-11-25T00:28:12.973Z,8.70
2022-11-25T00:30:40.412Z,8.70
2022-11-25T00:33:07.902Z,8.80
2022-11-25T00:35:35.801Z,8.70
2022-11-25T00:38:04.912Z,8.70
2022-11-25T00:45:43.298Z,8.70
2022-11-25T00:48:11.121Z,8.50
2022-11-25T00:50:39.924Z,8.40
2022-11-25T00:53:07.303Z,8.40
2022-11-25T00:55:55.453Z,8.50
2022-11-25T00:58:22.913Z,8.70
2022-11-25T01:00:51.985Z,8.90
2022-11-25T01:06:12.385Z,8.90
2022-11-25T01:08:40.677Z,9.00
2022-11-25T01:11:11.413Z,8.90
2022-11-25T01:13:38.872Z,8.90
2022-11-25T01:16:08.194Z,8.90
2022-11-25T01:18:36.122Z,8.60
2022-11-25T01:21:07.654Z,8.40
2022-11-25T01:29:14.191Z,8.10
2022-11-25T01:31:42.578Z,8.10
2022-11-25T01:34:14.643Z,8.00
2022-11-25T01:36:43.172Z,8.10
2022-11-25T01:39:17.450Z,8.10
2022-11-25T01:41:46.684Z,8.20
2022-11-25T01:44:17.171Z,8.30
2022-11-25T01:49:38.446Z,8.30
2022-11-25T01:52:15.442Z,8.20
2022-11-25T01:54:52.345Z,8.10
2022-11-25T01:57:25.577Z,8.20
2022-11-25T01:59:57.136Z,8.10
2022-11-25T02:02:25.130Z,8.20
2022-11-25T02:04:53.537Z,8.20
2022-11-25T02:15:02.955Z,8.00
2022-11-25T02:17:31.226Z,8.00
2022-11-25T02:20:04.275Z,8.00
2022-11-25T02:22:43.066Z,8.10
2022-11-25T02:25:15.692Z,8.20
2022-11-25T02:27:46.542Z,8.20
2022-11-25T02:30:14.455Z,8.20
2022-11-25T02:32:45.432Z,8.10
2022-11-25T02:38:48.855Z,7.90
2022-11-25T02:41:19.924Z,7.90
2022-11-25T02:43:48.286Z,7.90
2022-11-25T02:46:22.531Z,7.80
2022-11-25T02:51:40.303Z,7.80
2022-11-25T02:54:08.824Z,7.60
2022-11-25T02:56:37.049Z,7.80
2022-11-25T03:04:09.067Z,7.80
2022-11-25T03:06:36.377Z,8.00
2022-11-25T03:09:04.026Z,8.00
2022-11-25T03:11:49.244Z,8.10
2022-11-25T03:14:16.636Z,8.00
2022-11-25T03:16:44.310Z,7.90
2022-11-25T03:19:13.335Z,7.90
2022-11-25T03:21:41.175Z,7.90
2022-11-25T03:29:13.034Z,7.80
2022-11-25T03:31:41.450Z,7.80
2022-11-25T03:34:08.874Z,7.80
2022-11-25T03:36:36.288Z,7.80
2022-11-25T03:39:04.039Z,7.80
2022-11-25T03:41:31.808Z,7.80
2022-11-25T03:43:59.396Z,7.80
2022-11-25T03:46:30.897Z,7.70
2022-11-25T03:54:04.537Z,7.80
2022-11-25T03:56:31.926Z,7.80
2022-11-25T03:58:59.355Z,7.80
2022-11-25T04:01:26.963Z,7.80
2022-11-25T04:03:55.086Z,7.60
2022-11-25T04:06:23.686Z,7.70
2022-11-25T04:08:51.264Z,7.70
2022-11-25T04:16:26.937Z,7.90
2022-11-25T04:18:54.291Z,7.70
2022-11-25T04:21:21.877Z,7.90
2022-11-25T04:23:49.237Z,7.70
2022-11-25T04:26:17.167Z,7.80
2022-11-25T04:28:44.617Z,7.80
2022-11-25T04:31:12.016Z,7.70
2022-11-25T04:33:40.417Z,7.70
2022-11-25T04:41:15.935Z,8.00
2022-11-25T04:43:43.375Z,7.90
2022-11-25T04:46:15.316Z,7.90
2022-11-25T04:48:42.808Z,7.90
2022-11-25T04:51:10.166Z,7.90
2022-11-25T04:53:37.844Z,7.70
2022-11-25T04:56:06.395Z,7.50
2022-11-25T05:04:27.664Z,7.60
2022-11-25T05:06:55.363Z,7.50
2022-11-25T05:09:23.321Z,7.70
2022-11-25T05:11:50.838Z,7.80
2022-11-25T05:14:18.547Z,7.90
2022-11-25T05:16:48.980Z,8.10
2022-11-25T05:19:17.405Z,8.10
2022-11-25T05:27:06.517Z,7.70
2022-11-25T05:29:34.164Z,8.10
2022-11-25T05:32:01.905Z,8.00
2022-11-25T05:34:29.908Z,8.10
2022-11-25T05:36:57.681Z,8.30
2022-11-25T05:39:25.887Z,8.30
2022-11-25T05:41:54.018Z,8.10
2022-11-25T05:44:23.577Z,8.00
2022-11-25T05:51:55.550Z,8.10
2022-11-25T05:54:23.195Z,8.00
2022-11-25T05:56:50.885Z,7.90
2022-11-25T05:59:18.857Z,7.60
2022-11-25T06:01:46.217Z,7.60
2022-11-25T06:04:13.585Z,7.50
2022-11-25T06:06:41.229Z,7.30
2022-11-25T06:09:09.616Z,7.30
2022-11-25T06:16:44.028Z,7.80
2022-11-25T06:19:11.666Z,8.40
2022-11-25T06:21:39.018Z,8.50
2022-11-25T06:24:06.939Z,8.50
2022-11-25T06:26:34.557Z,8.50
2022-11-25T06:29:01.944Z,8.50
2022-11-25T06:31:29.483Z,8.20
2022-11-25T06:39:18.310Z,7.80
2022-11-25T06:41:46.975Z,7.30
2022-11-25T06:44:14.736Z,7.40
2022-11-25T06:46:42.212Z,7.20
2022-11-25T06:49:10.325Z,7.40
2022-11-25T06:51:38.226Z,7.50
2022-11-25T06:54:06.678Z,7.70
2022-11-25T06:56:35.878Z,7.70
2022-11-25T07:04:08.407Z,8.10
2022-11-25T07:06:35.919Z,7.70
2022-11-25T07:09:03.821Z,7.80
2022-11-25T07:11:32.787Z,8.00
2022-11-25T07:14:01.615Z,8.10
2022-11-25T07:16:29.958Z,8.20
2022-11-25T07:18:59.087Z,8.20
2022-11-25T07:27:33.831Z,8.30
2022-11-25T07:30:41.606Z,8.50
2022-11-25T07:32:49.076Z,8.50
2022-11-25T07:35:21.071Z,8.50
2022-11-25T07:37:48.809Z,8.30
2022-11-25T07:40:17.140Z,8.40
2022-11-25T07:42:45.925Z,8.50
2022-11-25T07:45:13.477Z,8.40
2022-11-25T07:52:46.509Z,8.60
2022-11-25T07:55:14.122Z,8.70
2022-11-25T07:57:44.672Z,8.80
2022-11-25T08:00:13.944Z,8.90
2022-11-25T08:02:41.929Z,9.10
2022-11-25T08:05:10.576Z,9.00
2022-11-25T08:07:38.246Z,9.10
2022-11-25T08:17:02.906Z,9.10
2022-11-25T08:35:48.626Z,9.20
2022-11-25T09:34:19.496Z,9.60
2022-11-25T09:36:48.779Z,9.90
2022-11-25T09:39:16.385Z,9.70
2022-11-25T09:42:23.022Z,9.90
2022-11-25T09:45:22.748Z,9.80
2022-11-25T09:48:01.587Z,9.90
2022-11-25T09:50:48.677Z,10.00
2022-11-25T10:11:26.218Z,9.90
2022-11-25T10:13:58.835Z,9.90
2022-11-25T10:16:34.980Z,9.90
2022-11-25T10:19:06.449Z,9.90
2022-11-25T10:21:33.845Z,9.90
2022-11-25T10:24:03.977Z,10.10
2022-11-25T10:26:39.377Z,10.20
2022-11-25T10:34:24.194Z,10.00
2022-11-25T10:36:53.697Z,9.80
2022-11-25T10:39:24.192Z,9.20
2022-11-25T10:41:56.629Z,9.10
2022-11-25T10:44:27.855Z,9.00
2022-11-25T10:47:14.542Z,9.20
2022-11-25T10:49:54.958Z,9.00
2022-11-25T11:08:43.066Z,8.50
2022-11-25T11:11:21.395Z,8.80
2022-11-25T11:13:50.985Z,8.70
2022-11-25T11:16:28.389Z,8.80
2022-11-25T11:18:58.147Z,8.50
2022-11-25T11:21:32.096Z,8.50
2022-11-25T11:24:25.027Z,8.80
2022-11-25T11:32:51.696Z,9.30
2022-11-25T11:36:20.101Z,9.20
2022-11-25T11:39:34.878Z,9.30
2022-11-25T11:42:09.247Z,9.60
2022-11-25T11:45:05.853Z,9.80
2022-11-25T11:47:58.125Z,10.00
2022-11-25T11:51:05.478Z,9.80
2022-11-25T11:54:10.666Z,9.60
2022-11-25T11:57:15.980Z,9.60
2022-11-25T12:02:36.547Z,9.70
2022-11-25T12:05:14.047Z,10.10
2022-11-25T12:07:51.415Z,10.00
2022-11-25T12:10:25.055Z,10.00
2022-11-25T12:12:58.228Z,9.80
2022-11-25T12:15:37.036Z,9.60
2022-11-25T12:18:19.508Z,9.80
2022-11-25T12:20:55.577Z,9.60
2022-11-25T12:28:39.160Z,9.90
2022-11-25T12:31:13.356Z,10.00
2022-11-25T12:33:50.105Z,9.90
2022-11-25T12:36:23.157Z,9.60
2022-11-25T12:38:55.738Z,9.70
2022-11-25T12:41:30.686Z,9.60
2022-11-25T12:44:09.526Z,9.70
2022-11-25T14:32:45.526Z,11.40
2022-11-25T15:25:57.311Z,11.20
2022-11-25T15:28:24.677Z,11.30
2022-11-25T15:31:00.325Z,11.10
2022-11-25T15:33:30.167Z,11.10
2022-11-25T15:35:57.909Z,10.70
2022-11-25T15:38:38.418Z,10.60
2022-11-25T15:41:15.482Z,10.50
2022-11-25T15:59:24.713Z,10.70
2022-11-25T16:01:52.226Z,10.70
2022-11-25T16:04:21.817Z,10.90
2022-11-25T16:06:55.357Z,10.90
2022-11-25T16:09:28.326Z,10.60
2022-11-25T16:12:06.398Z,10.70
2022-11-25T16:14:37.382Z,10.70
2022-11-25T16:20:21.016Z,10.50
2022-11-25T16:22:51.825Z,10.60
2022-11-25T16:25:19.337Z,10.70
2022-11-25T16:27:48.500Z,10.70
2022-11-25T16:30:21.032Z,10.60
2022-11-25T16:32:59.417Z,10.70
2022-11-25T16:35:28.498Z,10.60
2022-11-25T16:40:39.510Z,10.70
2022-11-25T16:43:19.388Z,10.20
2022-11-25T16:45:52.074Z,10.20
2022-11-25T16:48:23.709Z,10.30
2022-11-25T16:50:52.762Z,10.50
2022-11-25T16:53:24.658Z,10.40
2022-11-25T16:55:54.105Z,10.40
2022-11-25T17:03:30.222Z,10.30
2022-11-25T17:05:59.528Z,10.40
2022-11-25T17:08:26.931Z,10.40
2022-11-25T17:10:58.595Z,10.30
2022-11-25T17:13:30.887Z,10.10
2022-11-25T17:15:59.762Z,10.20
2022-11-25T17:18:28.932Z,10.40
2022-11-25T17:26:01.401Z,10.50
2022-11-25T17:28:29.840Z,10.60
2022-11-25T17:30:57.422Z,10.70
2022-11-25T17:33:24.962Z,10.40
2022-11-25T17:35:53.740Z,10.10
2022-11-25T17:38:21.818Z,10.10
2022-11-25T17:40:50.162Z,10.10
2022-11-25T17:48:24.659Z,10.00
2022-11-25T17:50:52.163Z,10.00
2022-11-25T17:53:19.725Z,10.00
2022-11-25T17:55:47.302Z,10.10
2022-11-25T17:58:15.703Z,9.80
2022-11-25T18:00:44.890Z,9.80
2022-11-25T18:03:13.510Z,9.90
2022-11-25T18:08:58.739Z,9.90
2022-11-25T18:15:29.563Z,9.60
2022-11-25T18:18:16.022Z,9.30
2022-11-25T18:20:52.880Z,9.00
2022-11-25T18:23:33.770Z,8.70
2022-11-25T18:26:07.841Z,8.50
2022-11-25T18:47:24.961Z,8.60
2022-11-25T18:49:56.171Z,8.80
2022-11-25T18:52:24.291Z,8.80
2022-11-25T18:54:51.629Z,8.90
2022-11-25T18:57:19.159Z,8.90
2022-11-25T18:59:52.722Z,8.90
2022-11-25T19:02:30.130Z,8.80
2022-11-25T19:10:03.064Z,8.60
2022-11-25T19:12:31.280Z,8.70
2022-11-25T19:14:58.876Z,8.60
2022-11-25T19:17:26.591Z,8.50
2022-11-25T19:19:53.982Z,8.40
2022-11-25T19:22:22.170Z,8.40
2022-11-25T19:24:50.108Z,8.10
2022-11-25T19:27:23.115Z,8.00
2022-11-25T19:36:53.821Z,7.90
2022-11-25T19:39:21.363Z,8.40
2022-11-25T19:41:51.332Z,8.20
2022-11-25T19:44:23.921Z,8.20
2022-11-25T19:49:58.789Z,8.00
2022-11-25T19:52:35.219Z,7.90
2022-11-25T20:00:53.314Z,7.90
2022-11-25T20:03:24.041Z,7.60
2022-11-25T20:05:53.959Z,7.70
2022-11-25T20:08:23.858Z,7.60
2022-11-25T20:10:51.519Z,7.70
2022-11-25T20:13:19.070Z,7.70
2022-11-25T20:15:48.962Z,7.60
2022-11-25T20:23:28.579Z,7.70
2022-11-25T20:26:00.780Z,7.70
2022-11-25T20:28:31.167Z,7.70
2022-11-25T20:30:59.870Z,7.70
2022-11-25T20:33:31.040Z,7.90
2022-11-25T20:36:04.823Z,7.80
2022-11-25T20:38:36.022Z,7.70
2022-11-25T20:54:23.709Z,7.60
2022-11-25T20:56:59.492Z,7.80
2022-11-25T20:59:28.392Z,7.80
2022-11-25T21:01:58.746Z,7.80
2022-11-25T21:04:28.469Z,7.80
2022-11-25T21:06:57.852Z,7.90
2022-11-25T21:09:34.502Z,7.90
2022-11-25T21:12:02.789Z,7.90
2022-11-25T21:17:16.232Z,8.00
2022-11-25T21:19:44.561Z,8.20
2022-11-25T21:22:17.071Z,8.40
2022-11-25T21:24:47.035Z,8.60
2022-11-25T21:27:24.535Z,8.50
2022-11-25T21:29:55.130Z,8.20
2022-11-25T21:32:25.526Z,8.10
2022-11-25T21:40:06.041Z,7.90
2022-11-25T21:42:33.828Z,7.80
2022-11-25T21:45:01.102Z,7.80
2022-11-25T21:47:31.239Z,8.10
2022-11-25T21:49:59.421Z,7.90
2022-11-25T21:52:27.291Z,8.20
2022-11-25T21:54:54.981Z,7.80
2022-11-25T22:12:32.033Z,8.00
2022-11-25T22:15:05.231Z,8.00
2022-11-25T22:17:33.421Z,7.90
2022-11-25T22:20:01.144Z,7.90
2022-11-25T22:22:34.410Z,7.70
2022-11-25T22:25:01.904Z,7.80
2022-11-25T22:27:36.547Z,7.70
2022-11-25T22:32:44.830Z,7.80
2022-11-25T22:35:18.509Z,7.90
2022-11-25T22:37:50.590Z,7.80
2022-11-25T22:40:21.622Z,7.70
2022-11-25T22:42:51.167Z,7.70
2022-11-25T22:45:25.316Z,7.70
2022-11-25T22:47:55.123Z,7.80
2022-11-25T22:50:25.008Z,7.70
2022-11-25T23:08:23.960Z,7.60
2022-11-25T23:10:52.576Z,7.90
2022-11-25T23:13:20.655Z,7.90
2022-11-25T23:15:50.233Z,7.90
2022-11-25T23:18:26.297Z,7.90
2022-11-25T23:20:53.809Z,7.90
2022-11-25T23:23:24.021Z,7.90
2022-11-25T23:33:23.152Z,8.00
2022-11-25T23:36:08.838Z,7.90
2022-11-25T23:38:44.176Z,7.90
2022-11-25T23:41:15.368Z,7.90
2022-11-25T23:43:44.003Z,7.70
2022-11-25T23:46:14.814Z,7.90
2022-11-25T23:48:46.918Z,8.00
2022-11-25T23:54:40.957Z,7.90
2022-11-25T23:57:30.042Z,8.10
